Time;durP1;ratioP1;P1;durP2;ratioP2;P2;SDS_P1;SDS_P2;PMS_P1;PMS_P2;Temp;Humidity;BMP_temperature;BMP_pressure;BME280_temperature;BME280_humidity;BME280_pressure;Samples;Min_cycle;Max_cycle;Signal;HPM_P1;HPM_P2
2023/12/19 00:01:31;;;;;;;12.48;6.03;;;;;;;9.02;66.05;101837.34;5026139;27;99433;-74
2023/12/19 00:03:58;;;;;;;9.38;6.10;;;;;;;9.45;64.75;101834.19;5029663;27;99072;-74
2023/12/19 00:06:24;;;;;;;10.05;5.22;;;;;;;9.71;63.13;101825.88;5030929;27;96676;-74
2023/12/19 00:08:51;;;;;;;10.38;5.97;;;;;;;9.68;62.77;101815.38;5024678;27;96849;-75
2023/12/19 00:11:19;;;;;;;11.38;5.50;;;;;;;9.28;63.70;101810.66;5024425;27;101941;-75
2023/12/19 00:13:46;;;;;;;9.07;5.85;;;;;;;9.44;63.45;101795.50;5027026;27;98901;-74
2023/12/19 00:16:13;;;;;;;9.02;5.70;;;;;;;9.64;62.64;101782.88;5019554;27;97868;-76
2023/12/19 00:18:39;;;;;;;8.02;5.50;;;;;;;10.03;60.84;101796.34;5021166;27;97012;-74
2023/12/19 00:21:06;;;;;;;8.85;5.68;;;;;;;9.96;60.56;101791.16;5026187;27;97726;-75
2023/12/19 00:23:32;;;;;;;8.82;5.65;;;;;;;9.73;61.17;101790.63;5030748;27;98788;-75
2023/12/19 00:25:59;;;;;;;9.32;5.53;;;;;;;9.95;60.80;101789.41;5026476;27;96784;-76
2023/12/19 00:28:27;;;;;;;8.82;4.95;;;;;;;10.21;59.67;101770.50;5033067;27;96866;-74
2023/12/19 00:30:54;;;;;;;9.30;4.78;;;;;;;10.26;59.60;101789.78;5036778;27;99640;-75
2023/12/19 00:33:22;;;;;;;11.07;5.18;;;;;;;10.15;59.53;101794.38;5030036;27;99098;-75
2023/12/19 00:35:48;;;;;;;14.32;5.70;;;;;;;10.34;59.46;101801.09;5020444;27;98978;-76
2023/12/19 00:38:15;;;;;;;8.43;5.35;;;;;;;10.68;58.66;101811.06;5032087;27;97039;-75
2023/12/19 00:40:41;;;;;;;7.18;5.38;;;;;;;11.08;56.80;101816.44;5021342;27;98853;-74
2023/12/19 00:43:08;;;;;;;14.73;5.45;;;;;;;10.72;57.62;101826.81;5029201;27;98701;-75
2023/12/19 00:45:36;;;;;;;9.02;4.85;;;;;;;10.64;58.16;101818.16;5029662;27;96751;-75
2023/12/19 00:48:03;;;;;;;10.18;4.85;;;;;;;10.58;58.06;101812.97;5030596;27;96798;-75
2023/12/19 00:50:29;;;;;;;9.23;5.18;;;;;;;10.61;57.79;101830.56;5032039;27;98576;-76
2023/12/19 00:52:56;;;;;;;9.27;5.28;;;;;;;10.85;57.34;101853.00;5025592;27;99204;-76
2023/12/19 00:55:24;;;;;;;8.38;5.22;;;;;;;10.35;58.13;101847.75;5031343;27;96840;-76
2023/12/19 00:57:51;;;;;;;11.13;4.85;;;;;;;10.36;58.44;101853.91;5028185;27;97232;-75
2023/12/19 01:00:17;;;;;;;8.40;5.20;;;;;;;10.36;58.35;101830.13;5024930;27;98572;-76
2023/12/19 01:02:45;;;;;;;7.45;4.68;;;;;;;10.11;58.61;101808.50;5025863;27;98140;-75
2023/12/19 01:05:11;;;;;;;7.82;4.28;;;;;;;10.31;59.09;101808.19;5027997;27;97274;-75
2023/12/19 01:07:38;;;;;;;6.78;4.55;;;;;;;10.57;57.70;101805.06;5031900;27;96734;-76
2023/12/19 01:10:05;;;;;;;7.40;5.00;;;;;;;10.74;57.34;101814.44;5031140;27;98756;-75
2023/12/19 01:12:31;;;;;;;6.50;4.57;;;;;;;10.13;58.12;101824.31;5031280;27;99052;-75
2023/12/19 01:14:57;;;;;;;9.10;4.97;;;;;;;9.82;60.36;101814.25;5031157;27;97456;-75
2023/12/19 01:17:24;;;;;;;7.32;4.57;;;;;;;10.17;59.06;101813.75;5030416;27;96874;-75
2023/12/19 01:19:52;;;;;;;7.38;4.57;;;;;;;10.00;58.75;101821.88;5025140;27;98908;-75
2023/12/19 01:22:18;;;;;;;7.05;4.40;;;;;;;9.43;60.68;101831.56;5030319;27;99770;-74
2023/12/19 01:24:45;;;;;;;6.10;4.50;;;;;;;9.24;61.72;101827.41;5031882;27;97166;-75
2023/12/19 01:27:11;;;;;;;11.68;6.00;;;;;;;9.29;62.21;101817.66;5030169;27;97287;-75
2023/12/19 01:29:37;;;;;;;7.70;4.45;;;;;;;9.73;61.34;101817.03;5028848;27;97799;-75
2023/12/19 01:32:04;;;;;;;9.93;4.60;;;;;;;10.03;59.55;101806.91;5029083;27;97973;-74
2023/12/19 01:34:32;;;;;;;7.68;4.65;;;;;;;9.80;60.52;101815.16;5030042;27;97930;-75
2023/12/19 01:37:00;;;;;;;7.10;4.65;;;;;;;9.60;60.84;101811.06;5022987;27;97183;-76
2023/12/19 01:39:26;;;;;;;8.15;4.43;;;;;;;9.53;62.01;101808.53;5024934;28;99556;-76
2023/12/19 01:41:53;;;;;;;8.60;5.00;;;;;;;9.54;62.27;101824.34;5021248;27;99151;-76
2023/12/19 01:44:20;;;;;;;12.02;4.45;;;;;;;9.68;62.70;101826.78;5030605;27;97122;-76
2023/12/19 01:46:46;;;;;;;5.70;4.20;;;;;;;9.37;63.95;101820.22;5030909;27;98005;-75
2023/12/19 01:49:13;;;;;;;7.13;5.00;;;;;;;9.59;63.09;101819.00;5027606;27;99128;-76
2023/12/19 01:51:40;;;;;;;7.28;4.47;;;;;;;9.88;62.88;101826.50;5026683;27;99343;-76
2023/12/19 01:54:09;;;;;;;9.73;4.70;;;;;;;9.60;63.62;101821.63;5027884;27;97904;-75
2023/12/19 01:56:37;;;;;;;7.20;4.22;;;;;;;9.74;62.37;101816.16;5025691;27;96778;-75
2023/12/19 01:59:05;;;;;;;6.47;4.75;;;;;;;9.15;64.88;101820.47;5029006;27;101549;-75
2023/12/19 02:01:34;;;;;;;8.82;5.25;;;;;;;9.31;64.55;101815.03;5028355;27;98839;-75
2023/12/19 02:04:00;;;;;;;9.05;4.82;;;;;;;9.51;63.55;101799.78;5022575;27;96796;-75
2023/12/19 02:06:27;;;;;;;7.47;4.55;;;;;;;9.40;63.04;101788.50;5027915;27;97145;-75
2023/12/19 02:08:54;;;;;;;7.97;4.82;;;;;;;9.21;64.56;101793.16;5021683;27;99361;-76
2023/12/19 02:11:21;;;;;;;7.18;5.25;;;;;;;9.51;63.27;101781.31;5027936;27;102985;-75
2023/12/19 02:13:48;;;;;;;9.02;4.68;;;;;;;8.97;64.91;101785.56;5035085;27;96703;-75
2023/12/19 02:16:14;;;;;;;7.88;5.20;;;;;;;9.24;64.37;101789.63;5027536;27;96893;-75
2023/12/19 02:18:43;;;;;;;8.70;4.65;;;;;;;9.54;63.63;101792.69;5028743;27;99010;-76
2023/12/19 02:21:10;;;;;;;7.22;4.78;;;;;;;9.70;62.25;101790.72;5018881;27;98817;-76
2023/12/19 02:23:38;;;;;;;9.80;4.90;;;;;;;9.47;63.15;101798.06;5032019;27;97156;-74
2023/12/19 02:26:04;;;;;;;7.10;4.50;;;;;;;9.62;63.41;101787.31;5031998;27;98124;-75
2023/12/19 02:28:31;;;;;;;6.90;4.75;;;;;;;9.71;62.20;101781.91;5033417;27;99033;-74
2023/12/19 02:30:57;;;;;;;10.60;6.20;;;;;;;9.33;64.61;101760.47;5028331;27;99504;-74
2023/12/19 02:33:23;;;;;;;6.82;4.05;;;;;;;9.82;62.77;101753.56;5032235;27;96881;-74
2023/12/19 02:35:50;;;;;;;6.82;4.93;;;;;;;9.11;65.62;101758.16;5022273;27;96804;-74
2023/12/19 02:38:16;;;;;;;8.15;5.03;;;;;;;9.01;66.25;101764.41;5027743;27;102200;-74
2023/12/19 02:40:44;;;;;;;9.85;5.03;;;;;;;9.04;66.71;101747.69;5032436;27;98840;-76
2023/12/19 02:43:10;;;;;;;7.13;4.88;;;;;;;9.43;65.16;101736.59;5027894;27;97320;-74
2023/12/19 02:45:36;;;;;;;12.70;5.53;;;;;;;9.57;64.08;101750.44;5028454;27;97487;-74
2023/12/19 02:48:03;;;;;;;9.63;5.18;;;;;;;9.59;64.68;101731.91;5029379;27;100067;-74
2023/12/19 02:50:30;;;;;;;8.82;5.20;;;;;;;9.82;63.46;101713.97;5032036;27;97643;-75
2023/12/19 02:52:57;;;;;;;9.63;5.13;;;;;;;9.92;63.59;101720.81;5028549;27;97793;-74
2023/12/19 02:55:23;;;;;;;9.23;5.55;;;;;;;9.68;64.24;101729.16;5028407;27;97177;-74
2023/12/19 02:57:51;;;;;;;6.43;4.60;;;;;;;9.23;66.19;101737.75;5039937;27;101399;-75
2023/12/19 03:00:17;;;;;;;11.30;5.40;;;;;;;8.91;68.01;101728.53;5031842;27;98166;-75
2023/12/19 03:02:44;;;;;;;7.55;4.90;;;;;;;8.68;69.64;101727.94;5031652;27;97182;-75
2023/12/19 03:05:11;;;;;;;10.73;5.72;;;;;;;8.97;69.12;101712.63;5033568;27;96860;-75
2023/12/19 03:07:37;;;;;;;6.30;5.20;;;;;;;9.36;67.79;101734.94;5024449;27;97680;-74
2023/12/19 03:10:07;;;;;;;9.43;5.43;;;;;;;9.28;67.65;101730.66;5028174;27;99147;-75
2023/12/19 03:12:34;;;;;;;8.00;5.35;;;;;;;9.09;69.20;101736.19;5030324;27;97328;-75
2023/12/19 03:15:02;;;;;;;6.65;4.43;;;;;;;8.72;70.80;101716.47;5030332;27;97161;-74
2023/12/19 03:17:28;;;;;;;9.43;5.60;;;;;;;8.90;71.14;101718.00;5028720;27;98947;-75
2023/12/19 03:19:55;;;;;;;8.98;5.35;;;;;;;9.24;70.14;101706.09;5022590;27;99851;-75
2023/12/19 03:22:21;;;;;;;8.55;5.45;;;;;;;9.06;71.23;101704.56;5032700;27;96770;-75
2023/12/19 03:24:48;;;;;;;8.63;5.90;;;;;;;8.87;72.25;101720.66;5025960;27;97962;-75
2023/12/19 03:27:14;;;;;;;11.63;5.75;;;;;;;8.95;72.58;101690.69;5031742;27;99117;-75
2023/12/19 03:29:40;;;;;;;8.77;5.95;;;;;;;9.29;71.21;101685.78;5020153;27;101696;-75
2023/12/19 03:32:08;;;;;;;11.43;7.10;;;;;;;9.93;68.62;101693.50;5024094;27;96697;-74
2023/12/19 03:34:37;;;;;;;8.57;5.90;;;;;;;9.44;70.86;101689.97;5021306;27;96846;-74
2023/12/19 03:37:03;;;;;;;10.02;6.32;;;;;;;9.46;71.29;101688.16;5023685;27;99119;-74
2023/12/19 03:39:30;;;;;;;11.32;7.00;;;;;;;9.52;71.15;101699.47;5031334;27;99313;-74
2023/12/19 03:41:56;;;;;;;11.02;7.57;;;;;;;9.34;72.29;101704.19;5033272;27;97272;-75
2023/12/19 03:44:25;;;;;;;10.45;7.25;;;;;;;9.58;71.12;101714.38;5022902;27;98731;-74
2023/12/19 03:46:52;;;;;;;11.88;7.68;;;;;;;9.43;72.18;101711.97;5032418;27;99467;-74
2023/12/19 03:49:19;;;;;;;9.25;6.82;;;;;;;9.70;71.09;101710.66;5029783;27;99341;-74
2023/12/19 03:51:47;;;;;;;13.50;6.97;;;;;;;9.18;72.68;101709.69;5025521;27;96787;-74
2023/12/19 03:54:13;;;;;;;9.50;6.65;;;;;;;9.64;71.46;101698.44;5023563;27;97141;-74
2023/12/19 03:56:41;;;;;;;7.88;4.90;;;;;;;9.06;73.54;101693.16;5022868;27;98890;-75
2023/12/19 03:59:09;;;;;;;12.63;7.80;;;;;;;9.29;73.60;101692.84;5033370;27;100549;-75
2023/12/19 04:01:43;;;;;;;14.05;7.60;;;;;;;8.92;75.90;101700.41;5033478;27;96833;-75
2023/12/19 04:04:09;;;;;;;14.13;7.35;;;;;;;9.26;74.58;101690.22;5032889;27;96845;-74
2023/12/19 04:06:37;;;;;;;11.60;7.25;;;;;;;9.62;72.63;101697.59;5024928;27;98959;-75
2023/12/19 04:09:03;;;;;;;12.05;7.68;;;;;;;9.48;72.86;101696.94;5032813;27;102132;-75
2023/12/19 04:11:30;;;;;;;11.57;7.32;;;;;;;9.13;74.98;101690.41;5033537;27;96707;-75
2023/12/19 04:13:56;;;;;;;10.80;6.85;;;;;;;8.63;77.65;101701.66;5021997;27;97174;-75
2023/12/19 04:16:22;;;;;;;12.95;7.75;;;;;;;9.35;75.57;101704.16;5030836;27;99292;-74
2023/12/19 04:18:49;;;;;;;11.27;7.75;;;;;;;9.69;73.35;101693.06;5027855;27;98930;-75
2023/12/19 04:21:15;;;;;;;11.23;8.20;;;;;;;9.97;72.00;101702.25;5031681;27;96807;-75
2023/12/19 04:23:43;;;;;;;11.15;7.00;;;;;;;9.25;74.59;101701.69;5027539;27;96899;-75
2023/12/19 04:26:10;;;;;;;12.18;7.38;;;;;;;9.33;75.60;101698.03;5032246;27;99238;-75
2023/12/19 04:28:36;;;;;;;13.32;7.90;;;;;;;9.91;73.15;101702.38;5033299;27;98929;-76
2023/12/19 04:31:03;;;;;;;13.60;7.75;;;;;;;9.63;73.60;101690.53;5033281;27;96670;-75
2023/12/19 04:33:29;;;;;;;10.82;7.75;;;;;;;9.95;72.83;101699.66;5033271;27;97253;-75
2023/12/19 04:35:55;;;;;;;12.73;8.55;;;;;;;10.30;71.42;101684.97;5032255;27;101906;-75
2023/12/19 04:38:22;;;;;;;13.50;8.20;;;;;;;10.02;71.97;101691.63;5024390;27;98880;-75
2023/12/19 04:40:49;;;;;;;14.52;8.35;;;;;;;9.66;74.38;101682.56;5033518;27;96960;-75
2023/12/19 04:43:16;;;;;;;12.98;8.30;;;;;;;9.96;73.06;101685.56;5032740;27;96793;-75
2023/12/19 04:45:43;;;;;;;13.63;7.70;;;;;;;10.06;72.91;101685.38;5032444;27;99067;-75
2023/12/19 04:48:09;;;;;;;13.98;8.07;;;;;;;9.99;72.89;101680.19;5032076;27;98712;-75
2023/12/19 04:50:35;;;;;;;10.57;7.40;;;;;;;10.36;71.02;101687.47;5033297;27;97298;-75
2023/12/19 04:53:02;;;;;;;13.68;7.85;;;;;;;9.79;73.93;101678.81;5034574;27;96899;-75
2023/12/19 04:55:28;;;;;;;12.35;8.30;;;;;;;9.62;75.71;101681.75;5031802;27;103093;-75
2023/12/19 04:57:56;;;;;;;15.07;7.82;;;;;;;10.19;72.98;101677.22;5033503;27;98819;-75
2023/12/19 05:00:23;;;;;;;13.30;8.43;;;;;;;10.70;70.72;101659.44;5030976;27;97004;-75
2023/12/19 05:02:49;;;;;;;12.90;8.57;;;;;;;10.29;72.34;101656.78;5032778;27;96812;-75
2023/12/19 05:05:16;;;;;;;12.73;8.20;;;;;;;10.75;70.18;101652.28;5028830;27;99172;-76
2023/12/19 05:07:42;;;;;;;13.85;7.43;;;;;;;10.80;69.92;101652.19;5032636;27;99044;-74
2023/12/19 05:10:09;;;;;;;12.40;8.20;;;;;;;10.82;69.54;101655.66;5032605;27;97352;-74
2023/12/19 05:12:35;;;;;;;12.77;8.13;;;;;;;10.43;71.83;101653.88;5022942;27;96976;-74
2023/12/19 05:15:04;;;;;;;11.27;7.60;;;;;;;10.82;70.53;101653.03;5031892;27;99457;-74
2023/12/19 05:17:30;;;;;;;11.05;7.35;;;;;;;11.33;67.74;101660.66;5031926;27;99168;-75
2023/12/19 05:19:57;;;;;;;12.45;7.43;;;;;;;11.06;68.71;101648.94;5032741;27;97439;-74
2023/12/19 05:22:23;;;;;;;10.35;7.70;;;;;;;11.42;67.54;101653.34;5032120;27;96744;-75
2023/12/19 05:24:49;;;;;;;12.90;7.63;;;;;;;11.26;67.71;101659.94;5030988;27;99249;-74
2023/12/19 05:27:16;;;;;;;10.85;7.78;;;;;;;11.32;66.74;101654.50;5032088;27;99787;-74
2023/12/19 05:29:42;;;;;;;9.18;6.68;;;;;;;11.01;68.20;101654.34;5028108;27;96847;-75
2023/12/19 05:32:10;;;;;;;11.82;7.32;;;;;;;11.08;68.07;101666.53;5029534;27;96889;-75
2023/12/19 05:34:37;;;;;;;11.30;7.00;;;;;;;11.03;68.24;101660.44;5031615;27;99741;-74
2023/12/19 05:37:04;;;;;;;12.27;6.47;;;;;;;10.72;69.09;101656.75;5031906;27;98312;-75
2023/12/19 05:39:31;;;;;;;12.48;7.47;;;;;;;10.64;70.18;101653.41;5032197;27;96702;-75
2023/12/19 05:41:58;;;;;;;11.07;7.20;;;;;;;10.88;69.27;101644.09;5020631;28;97217;-75
2023/12/19 05:44:24;;;;;;;10.63;6.35;;;;;;;10.85;69.10;101647.66;5031566;27;98578;-74
2023/12/19 05:46:51;;;;;;;12.00;7.22;;;;;;;10.78;69.82;101631.06;5031914;27;102219;-75
2023/12/19 05:49:19;;;;;;;11.55;7.55;;;;;;;11.10;68.73;101626.78;5031653;27;96739;-74
2023/12/19 05:51:46;;;;;;;11.82;7.22;;;;;;;11.47;67.39;101632.94;5032734;27;97174;-75
2023/12/19 05:54:12;;;;;;;8.90;6.78;;;;;;;11.39;66.83;101628.75;5031254;27;99311;-74
2023/12/19 05:56:38;;;;;;;10.10;7.18;;;;;;;11.30;67.59;101628.97;5031896;27;98837;-74
2023/12/19 05:59:05;;;;;;;14.77;7.90;;;;;;;11.15;68.53;101624.94;5024048;27;97482;-74
2023/12/19 06:01:31;;;;;;;10.45;7.22;;;;;;;11.23;68.22;101616.78;5035144;27;97238;-75
2023/12/19 06:04:00;;;;;;;9.50;6.78;;;;;;;11.13;68.41;101606.44;5035241;27;101483;-75
2023/12/19 06:06:28;;;;;;;13.50;7.13;;;;;;;11.31;68.04;101622.78;5034499;27;97848;-75
2023/12/19 06:08:55;;;;;;;13.43;7.45;;;;;;;11.11;68.63;101642.63;5035594;27;96731;-74
2023/12/19 06:11:26;;;;;;;13.63;7.93;;;;;;;10.73;70.35;101642.63;5033517;27;97133;-76
2023/12/19 06:13:52;;;;;;;11.40;6.80;;;;;;;10.98;69.82;101654.41;5034939;27;101566;-74
2023/12/19 06:16:19;;;;;;;10.18;7.00;;;;;;;11.03;69.17;101647.22;5035042;27;99812;-74
2023/12/19 06:18:45;;;;;;;11.32;7.45;;;;;;;11.12;68.72;101627.63;5034808;28;96840;-74
2023/12/19 06:21:12;;;;;;;9.10;6.18;;;;;;;10.93;69.57;101613.09;5035747;27;96747;-74
2023/12/19 06:23:40;;;;;;;9.05;6.72;;;;;;;10.96;69.73;101605.13;5027092;27;101626;-76
2023/12/19 06:26:06;;;;;;;9.45;6.45;;;;;;;11.05;68.90;101612.81;5034469;27;98863;-75
2023/12/19 06:28:33;;;;;;;11.05;6.70;;;;;;;11.50;67.16;101616.09;5035803;27;96817;-75
2023/12/19 06:30:59;;;;;;;8.35;5.93;;;;;;;11.70;65.50;101595.28;5035831;27;96761;-75
2023/12/19 06:33:25;;;;;;;9.65;6.25;;;;;;;11.63;64.86;101596.34;5034413;27;99591;-75
2023/12/19 06:35:52;;;;;;;9.30;6.38;;;;;;;11.75;64.24;101572.22;5034611;27;98067;-75
2023/12/19 06:38:19;;;;;;;8.48;5.82;;;;;;;11.72;63.77;101558.19;5034979;27;96572;-74
2023/12/19 06:40:47;;;;;;;11.45;5.97;;;;;;;11.75;63.20;101552.84;5035484;27;97260;-74
2023/12/19 06:43:13;;;;;;;9.30;6.15;;;;;;;11.56;63.63;101553.28;5034716;27;97663;-74
2023/12/19 06:45:39;;;;;;;10.43;6.13;;;;;;;11.52;64.21;101549.00;5033521;28;99050;-74
2023/12/19 06:48:06;;;;;;;7.78;5.47;;;;;;;11.52;63.73;101558.72;5034966;27;97053;-74
2023/12/19 06:50:33;;;;;;;10.65;6.45;;;;;;;11.31;64.43;101562.78;5035064;27;97199;-74
2023/12/19 06:53:00;;;;;;;22.55;11.55;;;;;;;11.27;64.90;101571.72;5034568;27;99060;-74
2023/12/19 06:55:27;;;;;;;10.18;6.97;;;;;;;11.30;64.43;101561.03;5033227;27;101543;-73
2023/12/19 06:57:56;;;;;;;9.07;5.53;;;;;;;10.82;66.75;101554.34;5029819;27;96877;-74
2023/12/19 07:00:22;;;;;;;17.67;6.25;;;;;;;10.97;65.94;101551.31;5032250;27;96668;-74
2023/12/19 07:02:48;;;;;;;17.00;6.55;;;;;;;10.92;65.71;101550.53;5034721;27;98173;-75
2023/12/19 07:05:15;;;;;;;10.32;5.40;;;;;;;10.90;65.34;101542.66;5034512;27;97552;-76
2023/12/19 07:07:41;;;;;;;17.65;9.38;;;;;;;10.81;65.94;101545.53;5029201;27;97183;-75
2023/12/19 07:10:08;;;;;;;10.52;6.03;;;;;;;10.73;66.13;101550.13;5034674;27;97222;-75
2023/12/19 07:12:34;;;;;;;11.98;5.43;;;;;;;10.90;65.12;101561.16;5022105;27;97085;-76
2023/12/19 07:15:04;;;;;;;11.63;6.68;;;;;;;11.31;63.50;101572.50;5027346;27;99466;-75
2023/12/19 07:17:30;;;;;;;9.13;5.40;;;;;;;9.91;68.12;101592.34;5032439;27;97459;-74
2023/12/19 07:19:57;;;;;;;11.90;6.47;;;;;;;10.19;68.33;101591.81;5033065;27;97223;-74
2023/12/19 07:22:24;;;;;;;8.07;4.65;;;;;;;9.83;69.47;101602.19;5032998;27;98828;-75
2023/12/19 07:24:51;;;;;;;8.23;5.03;;;;;;;10.19;69.10;101597.09;5026775;27;99406;-74
2023/12/19 07:27:17;;;;;;;12.75;5.50;;;;;;;10.24;69.17;101593.47;5019263;27;96938;-75
2023/12/19 07:29:44;;;;;;;7.30;5.38;;;;;;;10.71;67.29;101596.84;5014359;27;97116;-75
2023/12/19 07:32:11;;;;;;;8.00;5.32;;;;;;;10.62;68.26;101592.66;5015444;27;99380;-75
2023/12/19 07:34:38;;;;;;;7.75;5.93;;;;;;;10.94;67.95;101583.13;5033224;27;101391;-75
2023/12/19 07:37:04;;;;;;;11.23;6.10;;;;;;;11.17;67.61;101580.78;5034459;27;96879;-75
2023/12/19 07:39:31;;;;;;;10.15;7.00;;;;;;;11.13;68.94;101579.13;5025717;27;96700;-75
2023/12/19 07:41:57;;;;;;;10.13;6.30;;;;;;;10.81;71.11;101574.59;5033908;27;99061;-76
2023/12/19 07:44:24;;;;;;;14.18;7.60;;;;;;;10.85;72.48;101570.97;5024604;27;97876;-76
2023/12/19 07:46:50;;;;;;;11.35;6.80;;;;;;;11.25;71.01;101564.72;5034711;27;96781;-76
2023/12/19 07:49:18;;;;;;;10.98;6.18;;;;;;;10.83;72.22;101570.13;5034307;27;97145;-76
2023/12/19 07:51:45;;;;;;;12.02;7.38;;;;;;;11.00;72.86;101575.03;5030013;27;99219;-76
2023/12/19 07:54:11;;;;;;;12.63;7.25;;;;;;;10.78;74.41;101579.97;5033157;27;99127;-76
2023/12/19 07:56:41;;;;;;;14.65;7.28;;;;;;;10.93;74.77;101578.72;5025849;27;96764;-76
2023/12/19 07:59:07;;;;;;;13.85;7.80;;;;;;;10.86;75.20;101585.94;5025666;27;97073;-77
2023/12/19 08:01:33;;;;;;;12.00;7.55;;;;;;;11.12;74.68;101580.91;5033361;27;99072;-75
2023/12/19 08:04:00;;;;;;;12.75;7.15;;;;;;;10.76;76.37;101585.28;5033203;27;99439;-75
2023/12/19 08:06:28;;;;;;;10.25;7.10;;;;;;;10.88;77.13;101580.63;5031822;27;97285;-75
2023/12/19 08:08:54;;;;;;;12.15;7.30;;;;;;;10.97;76.55;101569.81;5029302;27;96788;-75
2023/12/19 08:11:20;;;;;;;15.55;7.80;;;;;;;11.26;76.07;101569.09;5026416;27;99112;-76
2023/12/19 08:13:48;;;;;;;12.18;7.25;;;;;;;11.25;76.01;101567.34;5033928;27;98809;-75
2023/12/19 08:16:15;;;;;;;15.05;8.18;;;;;;;11.23;76.74;101569.16;5033360;27;97110;-76
2023/12/19 08:18:41;;;;;;;13.07;7.88;;;;;;;11.07;77.43;101561.63;5033475;27;98841;-76
2023/12/19 08:21:08;;;;;;;14.25;7.60;;;;;;;11.11;77.95;101547.41;5033935;27;99398;-78
2023/12/19 08:23:36;;;;;;;13.00;7.95;;;;;;;11.00;78.91;101540.66;5025055;27;99375;-76
2023/12/19 08:26:02;;;;;;;14.85;7.60;;;;;;;11.16;78.57;101532.28;5033526;27;96764;-76
2023/12/19 08:28:29;;;;;;;11.70;8.02;;;;;;;11.13;78.47;101510.34;5034146;27;96842;-75
2023/12/19 08:30:55;;;;;;;19.70;8.55;;;;;;;11.35;77.61;101514.19;5033937;27;99419;-75
2023/12/19 08:33:21;;;;;;;12.73;8.20;;;;;;;11.19;77.83;101508.41;5033578;27;98757;-77
2023/12/19 08:35:48;;;;;;;13.20;8.63;;;;;;;11.47;76.63;101505.03;5031301;28;96667;-75
2023/12/19 08:38:14;;;;;;;13.93;7.90;;;;;;;11.45;75.61;101497.13;5033729;27;96792;-77
2023/12/19 08:40:42;;;;;;;11.13;7.55;;;;;;;11.32;74.54;101500.16;5032879;27;98127;-76
2023/12/19 08:43:08;;;;;;;14.43;7.80;;;;;;;11.37;74.73;101500.91;5035702;27;97570;-75
2023/12/19 08:45:35;;;;;;;11.13;7.07;;;;;;;11.21;74.62;101503.09;5032948;27;96769;-75
2023/12/19 08:48:03;;;;;;;12.15;6.78;;;;;;;11.04;75.04;101511.44;5034036;27;97222;-75
2023/12/19 08:50:29;;;;;;;15.57;7.45;;;;;;;10.77;76.04;101513.00;5032794;27;101234;-74
2023/12/19 08:52:56;;;;;;;12.60;7.50;;;;;;;10.93;76.05;101512.63;5020092;27;97961;-75
2023/12/19 08:55:23;;;;;;;11.25;7.40;;;;;;;11.12;75.04;101505.97;5032286;27;96842;-75
2023/12/19 08:57:53;;;;;;;16.63;8.00;;;;;;;11.13;75.14;101499.78;5018854;27;96744;-76
2023/12/19 09:00:21;;;;;;;11.90;7.90;;;;;;;11.18;75.02;101497.88;5021067;27;99535;-74
2023/12/19 09:02:48;;;;;;;11.25;8.10;;;;;;;10.85;76.11;101490.78;5027177;27;101999;-76
2023/12/19 09:05:16;;;;;;;18.25;9.10;;;;;;;11.18;75.22;101495.22;5028025;27;96765;-76
2023/12/19 09:07:44;;;;;;;16.60;7.28;;;;;;;10.88;74.34;101490.72;5031064;27;97026;-75
2023/12/19 09:10:11;;;;;;;14.25;8.65;;;;;;;10.77;75.66;101486.56;5032425;27;100356;-76
2023/12/19 09:12:38;;;;;;;24.80;8.70;;;;;;;10.93;74.62;101492.34;5027408;27;96791;-77
2023/12/19 09:15:08;;;;;;;23.08;8.32;;;;;;;10.46;76.20;101485.56;5032463;27;97079;-75
2023/12/19 09:17:34;;;;;;;16.00;7.63;;;;;;;10.51;75.76;101483.66;5031770;27;98229;-74
2023/12/19 09:20:04;;;;;;;13.35;7.53;;;;;;;10.27;75.66;101478.97;5028995;27;97964;-75
2023/12/19 09:22:30;;;;;;;11.73;7.05;;;;;;;10.38;75.43;101471.66;5028983;27;99187;-75
2023/12/19 09:24:57;;;;;;;10.52;7.05;;;;;;;10.28;75.09;101472.78;5032330;27;98170;-75
2023/12/19 09:27:24;;;;;;;13.70;7.05;;;;;;;10.13;75.90;101454.59;5019442;27;96998;-75
2023/12/19 09:29:51;;;;;;;14.50;8.15;;;;;;;10.30;75.39;101461.28;5025938;27;99041;-74
2023/12/19 09:32:19;;;;;;;15.93;7.93;;;;;;;10.63;75.07;101462.22;5031902;27;99070;-76
2023/12/19 09:34:46;;;;;;;17.63;8.40;;;;;;;10.70;74.25;101458.53;5029752;27;97311;-76
2023/12/19 09:37:13;;;;;;;11.90;6.93;;;;;;;10.97;73.94;101454.31;5029521;27;98081;-75
2023/12/19 09:39:39;;;;;;;15.65;7.68;;;;;;;10.88;73.78;101445.78;5035361;27;99043;-76
2023/12/19 09:42:08;;;;;;;12.55;7.53;;;;;;;10.58;75.27;101442.97;5035489;27;99099;-76
2023/12/19 09:44:34;;;;;;;26.88;10.57;;;;;;;10.80;75.52;101443.31;5035631;27;96879;-76
2023/12/19 09:47:02;;;;;;;15.63;7.53;;;;;;;10.76;74.49;101442.50;5035689;27;97571;-75
2023/12/19 09:49:39;;;;;;;13.20;7.53;;;;;;;10.92;74.59;101445.66;5034949;27;98532;-75
2023/12/19 09:52:09;;;;;;;17.30;8.05;;;;;;;10.90;74.75;101439.53;5035270;27;98968;-75
2023/12/19 09:54:36;;;;;;;16.48;7.97;;;;;;;11.11;73.33;101438.09;5034624;27;96819;-75
2023/12/19 09:57:04;;;;;;;13.30;7.20;;;;;;;10.67;74.46;101432.19;5036371;27;97091;-74
2023/12/19 09:59:31;;;;;;;13.13;7.10;;;;;;;10.53;76.42;101428.16;5034865;27;101756;-74
2023/12/19 10:01:57;;;;;;;12.05;6.85;;;;;;;10.74;76.05;101412.63;5027075;28;101834;-74
2023/12/19 10:04:24;;;;;;;13.50;7.90;;;;;;;10.71;76.49;101395.97;5034593;27;96710;-75
2023/12/19 10:06:55;;;;;;;13.45;7.78;;;;;;;10.77;76.63;101394.03;5027446;27;96935;-75
2023/12/19 10:09:22;;;;;;;13.38;7.32;;;;;;;10.87;76.34;101391.16;5034828;27;99082;-74
2023/12/19 10:12:03;;;;;;;12.70;7.75;;;;;;;10.74;77.28;101385.31;5028150;27;99098;-74
2023/12/19 10:14:29;;;;;;;23.52;12.50;;;;;;;10.89;77.21;101371.72;5022546;27;96993;-75
2023/12/19 10:16:56;;;;;;;16.02;10.05;;;;;;;10.97;77.21;101367.06;5035749;27;96809;-74
2023/12/19 10:19:26;;;;;;;11.40;7.93;;;;;;;10.98;77.47;101367.94;5034191;27;98974;-74
2023/12/19 10:22:06;;;;;;;15.50;9.45;;;;;;;10.67;78.58;101367.88;5026493;27;99798;-74
2023/12/19 10:24:33;;;;;;;15.00;8.15;;;;;;;10.90;78.26;101361.97;5034552;27;96638;-74
2023/12/19 10:27:00;;;;;;;13.13;7.80;;;;;;;10.75;78.69;101356.22;5035387;27;96695;-74
2023/12/19 10:29:27;;;;;;;16.02;8.45;;;;;;;10.69;79.50;101351.09;5034975;27;99145;-74
2023/12/19 10:31:53;;;;;;;13.18;8.38;;;;;;;10.82;78.40;101340.19;5034322;27;99171;-75
2023/12/19 10:34:22;;;;;;;14.27;9.05;;;;;;;10.96;79.13;101330.94;5034699;27;96693;-76
2023/12/19 10:36:49;;;;;;;13.02;7.45;;;;;;;11.08;78.54;101322.69;5034015;27;97054;-75
2023/12/19 10:39:19;;;;;;;15.20;8.77;;;;;;;11.14;77.97;101314.59;5034857;27;98819;-75
2023/12/19 10:41:46;;;;;;;16.52;8.27;;;;;;;11.23;77.28;101310.78;5026343;27;99151;-74
2023/12/19 10:44:13;;;;;;;12.52;8.40;;;;;;;11.32;76.83;101299.06;5039977;27;97000;-76
2023/12/19 10:46:40;;;;;;;16.40;10.45;;;;;;;11.39;76.46;101300.63;5033939;27;96764;-74
2023/12/19 10:49:06;;;;;;;13.30;8.52;;;;;;;11.46;76.20;101304.81;5034140;27;97611;-75
2023/12/19 10:51:34;;;;;;;13.70;8.32;;;;;;;11.40;76.52;101297.94;5032004;27;99322;-74
2023/12/19 10:54:09;;;;;;;12.75;8.15;;;;;;;11.12;77.97;101286.44;5025920;27;97428;-75
2023/12/19 10:56:54;;;;;;;13.50;8.65;;;;;;;11.30;77.58;101282.38;5034857;27;96768;-74
2023/12/19 10:59:30;;;;;;;14.60;8.55;;;;;;;11.24;77.60;101264.03;5033981;27;99041;-75
2023/12/19 11:02:02;;;;;;;13.88;8.15;;;;;;;11.01;78.49;101264.72;5025061;27;99302;-76
2023/12/19 11:04:32;;;;;;;11.80;8.23;;;;;;;11.19;77.44;101256.25;5030251;27;96787;-75
2023/12/19 11:07:04;;;;;;;12.20;8.63;;;;;;;11.22;77.95;101271.19;5034234;27;96975;-76
2023/12/19 11:09:34;;;;;;;13.82;8.55;;;;;;;10.93;79.31;101270.22;5033514;27;97883;-76
2023/12/19 11:12:03;;;;;;;19.45;8.57;;;;;;;11.03;78.62;101265.53;5031583;27;99258;-75
2023/12/19 11:14:29;;;;;;;16.63;9.18;;;;;;;10.68;80.20;101254.22;5033982;27;96709;-75
2023/12/19 11:17:01;;;;;;;14.18;8.00;;;;;;;10.94;79.60;101249.94;5028509;27;97435;-76
2023/12/19 11:19:33;;;;;;;14.52;8.70;;;;;;;11.03;78.92;101250.53;5030772;27;101979;-76
2023/12/19 11:22:07;;;;;;;15.07;9.00;;;;;;;11.11;79.50;101243.25;5033572;27;98152;-75